Time;durP1;ratioP1;P1;durP2;ratioP2;P2;SDS_P1;SDS_P2;PMS_P1;PMS_P2;Temp;Humidity;BMP_temperature;BMP_pressure;BME280_temperature;BME280_humidity;BME280_pressure;Samples;Min_cycle;Max_cycle;Signal;HPM_P1;HPM_P2
2022/07/23 00:01:13;;;;;;;9.73;8.93;;;22.30;99.90;;;;;;5040569;28;20253;-54
2022/07/23 00:03:40;;;;;;;9.63;8.73;;;22.30;99.90;;;;;;5033152;28;20206;-54
2022/07/23 00:06:07;;;;;;;9.43;8.83;;;22.40;99.90;;;;;;5044706;28;20293;-54
2022/07/23 00:08:36;;;;;;;8.70;8.10;;;22.40;99.90;;;;;;5049080;28;20209;-54
2022/07/23 00:11:03;;;;;;;9.00;8.37;;;22.40;99.90;;;;;;5044943;28;20198;-54
2022/07/23 00:13:30;;;;;;;9.23;8.63;;;22.40;99.90;;;;;;5049753;28;20214;-54
2022/07/23 00:15:59;;;;;;;9.70;8.90;;;22.40;99.90;;;;;;5035337;28;20260;-54
2022/07/23 00:18:29;;;;;;;9.70;8.80;;;22.50;99.90;;;;;;5033578;28;20252;-54
2022/07/23 00:20:56;;;;;;;9.67;8.90;;;22.50;99.90;;;;;;5034279;28;20289;-55
2022/07/23 00:23:28;;;;;;;9.70;8.77;;;22.50;99.90;;;;;;5044307;28;20221;-54
2022/07/23 00:25:57;;;;;;;9.97;8.97;;;22.40;99.90;;;;;;5053093;28;20253;-54
2022/07/23 00:28:26;;;;;;;11.17;10.23;;;22.30;99.90;;;;;;5045271;28;20202;-54
2022/07/23 00:30:53;;;;;;;12.47;11.17;;;22.10;99.90;;;;;;5033504;28;20577;-54
2022/07/23 00:33:20;;;;;;;11.40;10.40;;;21.90;99.90;;;;;;5037225;28;20301;-55
2022/07/23 00:35:47;;;;;;;11.40;10.23;;;21.70;99.90;;;;;;5032834;28;20226;-54
2022/07/23 00:38:14;;;;;;;9.93;9.13;;;21.80;99.90;;;;;;5033012;28;20203;-54
2022/07/23 00:40:41;;;;;;;12.93;11.90;;;21.70;99.90;;;;;;5033372;28;20206;-54
2022/07/23 00:43:09;;;;;;;11.23;10.33;;;21.70;99.90;;;;;;5032479;28;20562;-54
2022/07/23 00:45:36;;;;;;;11.47;10.37;;;21.60;99.90;;;;;;5032035;28;20234;-54
2022/07/23 00:48:04;;;;;;;12.60;11.37;;;21.50;99.90;;;;;;5035607;28;20629;-54
2022/07/23 00:50:31;;;;;;;11.90;10.90;;;21.40;99.90;;;;;;5038943;28;20620;-54
2022/07/23 00:52:58;;;;;;;10.97;10.07;;;21.40;99.90;;;;;;5035543;28;20236;-54
2022/07/23 00:55:25;;;;;;;11.33;10.47;;;21.40;99.90;;;;;;5044456;28;20264;-54
2022/07/23 00:57:54;;;;;;;12.47;11.03;;;21.50;99.90;;;;;;5041706;28;20253;-54
2022/07/23 01:00:25;;;;;;;13.10;12.03;;;21.40;99.90;;;;;;5044138;28;20685;-54
2022/07/23 01:02:52;;;;;;;13.00;11.77;;;21.30;99.90;;;;;;5051859;28;20202;-54
2022/07/23 01:05:21;;;;;;;12.33;11.33;;;21.30;99.90;;;;;;5038459;28;20222;-54
2022/07/23 01:07:49;;;;;;;14.33;13.13;;;21.20;99.90;;;;;;5049747;28;20292;-53
2022/07/23 01:10:31;;;;;;;14.97;13.70;;;21.00;99.90;;;;;;5044934;28;20253;-54
2022/07/23 01:12:59;;;;;;;12.10;11.13;;;21.00;99.90;;;;;;5036792;28;20236;-54
2022/07/23 01:15:28;;;;;;;12.93;11.93;;;20.90;99.90;;;;;;5032700;28;20588;-54
2022/07/23 01:17:56;;;;;;;12.27;11.20;;;20.80;99.90;;;;;;5038648;28;20261;-54
2022/07/23 01:20:23;;;;;;;13.97;12.50;;;20.70;99.90;;;;;;5032506;28;20203;-54
2022/07/23 01:22:52;;;;;;;13.00;11.90;;;20.80;99.90;;;;;;5032865;28;20206;-54
2022/07/23 01:25:19;;;;;;;13.47;12.10;;;21.00;99.90;;;;;;5043688;28;20217;-54
2022/07/23 01:27:46;;;;;;;13.63;12.33;;;21.00;99.90;;;;;;5052150;28;20209;-54
2022/07/23 01:30:14;;;;;;;12.43;11.33;;;21.10;99.90;;;;;;5045068;28;20257;-55
2022/07/23 01:32:41;;;;;;;13.47;12.40;;;21.20;99.90;;;;;;5034583;28;20745;-54
2022/07/23 01:35:10;;;;;;;15.03;13.67;;;21.10;99.90;;;;;;5073429;22;20728;-51
2022/07/23 01:37:37;;;;;;;14.37;13.13;;;21.00;99.90;;;;;;5092617;28;20765;-51
2022/07/23 01:40:07;;;;;;;14.73;13.10;;;21.00;99.90;;;;;;5092351;28;20287;-50
2022/07/23 01:42:36;;;;;;;13.87;12.83;;;21.00;99.90;;;;;;5091584;28;20196;-51
2022/07/23 01:45:04;;;;;;;15.33;14.03;;;21.00;99.90;;;;;;5090582;28;20225;-51
2022/07/23 01:47:31;;;;;;;13.67;12.47;;;20.80;99.90;;;;;;5090491;28;20200;-51
2022/07/23 01:49:58;;;;;;;12.33;11.43;;;20.80;99.90;;;;;;5092420;28;20670;-51
2022/07/23 01:52:25;;;;;;;12.93;11.73;;;20.90;99.90;;;;;;5091842;28;20266;-51
2022/07/23 01:54:52;;;;;;;14.13;13.10;;;20.80;99.90;;;;;;5092447;28;20251;-51
2022/07/23 01:57:20;;;;;;;14.00;12.80;;;20.70;99.90;;;;;;5091587;28;20200;-51
2022/07/23 01:59:47;;;;;;;13.83;12.33;;;20.60;99.90;;;;;;5091236;28;20235;-51
2022/07/23 02:02:14;;;;;;;13.37;12.33;;;20.60;99.90;;;;;;5089462;28;20200;-51
2022/07/23 02:04:41;;;;;;;14.20;13.00;;;20.60;99.90;;;;;;5090057;28;20273;-51
2022/07/23 02:07:08;;;;;;;14.07;13.00;;;20.50;99.90;;;;;;5092039;28;20200;-51
2022/07/23 02:09:35;;;;;;;13.90;12.70;;;20.40;99.90;;;;;;5090206;28;20205;-51
2022/07/23 02:12:02;;;;;;;14.20;12.90;;;20.40;99.90;;;;;;5090435;28;20725;-50
2022/07/23 02:14:31;;;;;;;14.13;12.70;;;20.40;99.90;;;;;;5092164;28;20265;-51
2022/07/23 02:16:58;;;;;;;13.83;12.57;;;20.40;99.90;;;;;;5092049;28;20754;-51
2022/07/23 02:19:25;;;;;;;15.03;13.73;;;20.40;99.90;;;;;;5090452;28;20747;-50
2022/07/23 02:21:52;;;;;;;14.93;13.63;;;20.40;99.90;;;;;;5090401;28;20844;-51
2022/07/23 02:24:19;;;;;;;13.70;12.60;;;20.40;99.90;;;;;;5091942;28;20220;-51
2022/07/23 02:26:46;;;;;;;13.30;12.10;;;20.40;99.90;;;;;;5088871;28;20299;-51
2022/07/23 02:29:13;;;;;;;14.40;13.13;;;20.30;99.90;;;;;;5092201;28;20211;-51
2022/07/23 02:31:41;;;;;;;13.27;12.23;;;20.30;99.90;;;;;;5090544;28;20196;-51
2022/07/23 02:34:11;;;;;;;13.47;12.43;;;20.20;99.90;;;;;;5090795;28;20828;-51
2022/07/23 02:36:38;;;;;;;13.17;11.93;;;20.30;99.90;;;;;;5090891;28;20225;-50
2022/07/23 02:39:05;;;;;;;11.90;11.00;;;20.30;99.90;;;;;;5090606;28;20253;-51
2022/07/23 02:41:32;;;;;;;12.77;11.67;;;20.30;99.90;;;;;;5091163;28;20201;-51
2022/07/23 02:43:59;;;;;;;13.53;12.40;;;20.30;99.90;;;;;;5088061;28;20208;-51
2022/07/23 02:46:26;;;;;;;12.63;11.43;;;20.40;99.90;;;;;;5085445;28;20265;-51
2022/07/23 02:48:54;;;;;;;11.87;10.70;;;20.30;99.90;;;;;;5091742;28;20235;-51
2022/07/23 02:51:21;;;;;;;11.57;10.53;;;20.30;99.90;;;;;;5089714;28;20201;-51
2022/07/23 02:53:48;;;;;;;11.50;10.53;;;20.30;99.90;;;;;;5091436;28;20280;-51
2022/07/23 02:56:15;;;;;;;10.53;9.63;;;20.30;99.90;;;;;;5091160;28;20216;-50
2022/07/23 02:58:42;;;;;;;10.40;9.50;;;20.30;99.90;;;;;;5091470;28;20201;-50
2022/07/23 03:01:09;;;;;;;10.13;9.27;;;20.40;99.90;;;;;;5091083;28;20250;-50
2022/07/23 03:03:36;;;;;;;10.27;9.33;;;20.40;99.90;;;;;;5091872;28;20257;-51
2022/07/23 03:06:04;;;;;;;9.63;8.93;;;20.40;99.90;;;;;;5091623;28;20651;-50
2022/07/23 03:08:31;;;;;;;9.47;8.77;;;20.40;99.90;;;;;;5086298;28;20670;-51
2022/07/23 03:10:58;;;;;;;9.40;8.80;;;20.50;99.90;;;;;;5091488;28;20201;-51
2022/07/23 03:13:25;;;;;;;10.60;9.70;;;20.40;99.90;;;;;;5091718;28;20204;-51
2022/07/23 03:15:52;;;;;;;9.50;8.80;;;20.40;99.90;;;;;;5095562;28;20216;-51
2022/07/23 03:18:19;;;;;;;10.17;9.13;;;20.40;99.90;;;;;;5095464;28;20224;-51
2022/07/23 03:20:46;;;;;;;8.83;8.20;;;20.40;99.90;;;;;;5093235;28;20232;-51
2022/07/23 03:23:14;;;;;;;9.30;8.57;;;20.40;99.90;;;;;;5085813;28;20250;-51
2022/07/23 03:25:41;;;;;;;8.57;8.07;;;20.40;99.90;;;;;;5095243;28;20216;-51
2022/07/23 03:28:08;;;;;;;9.70;8.90;;;20.40;99.90;;;;;;5095163;28;20228;-51
2022/07/23 03:30:35;;;;;;;8.87;8.27;;;20.40;99.90;;;;;;5095236;28;20262;-51
2022/07/23 03:33:02;;;;;;;8.20;7.50;;;20.40;99.90;;;;;;5093961;28;20231;-50
2022/07/23 03:35:29;;;;;;;7.23;6.80;;;20.40;99.90;;;;;;5093491;28;20824;-51
2022/07/23 03:37:56;;;;;;;7.07;6.47;;;20.50;99.90;;;;;;5091717;28;20200;-51
2022/07/23 03:40:24;;;;;;;5.47;5.17;;;20.40;99.90;;;;;;5088543;28;20288;-51
2022/07/23 03:42:51;;;;;;;6.20;5.90;;;20.60;99.90;;;;;;5094128;28;20231;-51
2022/07/23 03:45:18;;;;;;;6.13;5.83;;;20.60;99.90;;;;;;5094750;28;20688;-51
2022/07/23 03:47:45;;;;;;;7.63;7.03;;;20.70;99.90;;;;;;5093971;28;20201;-51
2022/07/23 03:50:13;;;;;;;6.43;5.83;;;20.70;99.90;;;;;;5095088;28;20208;-50
2022/07/23 03:52:40;;;;;;;6.03;5.63;;;20.70;99.90;;;;;;5094308;28;20231;-51
2022/07/23 03:55:08;;;;;;;7.43;6.80;;;20.80;99.90;;;;;;5094029;28;20220;-51
2022/07/23 03:57:36;;;;;;;6.53;6.13;;;20.70;99.90;;;;;;5091951;28;20200;-51
2022/07/23 04:00:06;;;;;;;6.97;6.37;;;20.60;99.90;;;;;;5092790;28;20200;-51
2022/07/23 04:02:33;;;;;;;6.67;6.27;;;20.60;99.90;;;;;;5093741;28;20255;-51
2022/07/23 04:05:00;;;;;;;7.70;6.97;;;20.60;99.90;;;;;;5094785;28;20216;-51
2022/07/23 04:07:27;;;;;;;7.37;6.90;;;20.70;99.90;;;;;;5093934;28;20307;-51
2022/07/23 04:09:54;;;;;;;7.40;6.73;;;20.70;99.90;;;;;;5091828;28;20196;-51
2022/07/23 04:12:21;;;;;;;7.43;6.97;;;20.70;99.90;;;;;;5090372;28;20250;-50
2022/07/23 04:14:50;;;;;;;7.07;6.67;;;20.70;99.90;;;;;;5092714;28;20216;-51
2022/07/23 04:17:17;;;;;;;8.07;7.37;;;20.70;99.90;;;;;;5088946;28;20740;-51
2022/07/23 04:19:44;;;;;;;6.67;6.27;;;20.80;99.90;;;;;;5080116;28;20206;-51
2022/07/23 04:22:12;;;;;;;6.00;5.60;;;20.90;99.90;;;;;;5072500;28;20225;-51
2022/07/23 04:24:39;;;;;;;7.30;6.60;;;20.90;99.90;;;;;;5077446;28;20291;-51
2022/07/23 04:27:06;;;;;;;7.17;6.47;;;21.00;99.90;;;;;;5078447;28;20301;-51
2022/07/23 04:29:33;;;;;;;6.60;6.23;;;20.90;99.90;;;;;;5074575;28;20213;-51
2022/07/23 04:32:02;;;;;;;6.83;6.33;;;21.00;99.90;;;;;;5081422;28;20204;-50
2022/07/23 04:34:29;;;;;;;7.17;6.60;;;20.90;99.90;;;;;;5078576;28;20689;-51
2022/07/23 04:36:56;;;;;;;6.73;6.23;;;20.90;99.90;;;;;;5079019;28;20213;-51
2022/07/23 04:39:23;;;;;;;7.43;6.83;;;20.80;99.90;;;;;;5093857;28;20296;-50
2022/07/23 04:41:50;;;;;;;6.87;6.13;;;20.70;99.90;;;;;;5081272;28;20258;-50
2022/07/23 04:44:17;;;;;;;7.00;6.57;;;20.70;99.90;;;;;;5087188;28;20207;-51
2022/07/23 04:46:44;;;;;;;6.43;5.83;;;20.50;99.90;;;;;;5090760;28;20228;-51
2022/07/23 04:49:15;;;;;;;5.93;5.53;;;20.50;99.90;;;;;;5091625;28;20250;-51
2022/07/23 04:51:42;;;;;;;6.60;6.10;;;20.40;99.90;;;;;;5088487;28;20628;-50
2022/07/23 04:54:09;;;;;;;8.47;7.97;;;20.30;99.90;;;;;;5084214;28;20201;-51
2022/07/23 04:56:36;;;;;;;6.80;6.40;;;20.30;99.90;;;;;;5090433;28;20634;-51
2022/07/23 04:59:03;;;;;;;7.23;6.67;;;20.30;99.90;;;;;;5080156;28;20194;-51
2022/07/23 05:01:30;;;;;;;6.70;6.30;;;20.30;99.90;;;;;;5084633;28;20258;-51
2022/07/23 05:03:57;;;;;;;6.27;5.87;;;20.40;99.90;;;;;;5092952;28;20200;-51
2022/07/23 05:06:26;;;;;;;6.77;6.37;;;20.30;99.90;;;;;;5091914;28;20275;-50
2022/07/23 05:08:55;;;;;;;6.90;6.40;;;20.30;99.90;;;;;;5089808;28;20201;-51
2022/07/23 05:11:24;;;;;;;6.83;6.33;;;20.30;99.90;;;;;;5083849;28;20209;-51
2022/07/23 05:13:52;;;;;;;6.03;5.60;;;20.40;99.90;;;;;;5081179;28;20288;-51
2022/07/23 05:16:20;;;;;;;6.63;6.13;;;20.60;99.90;;;;;;5075321;28;20235;-51
2022/07/23 05:18:47;;;;;;;6.87;6.47;;;20.60;99.90;;;;;;5081673;28;20200;-50
2022/07/23 05:21:14;;;;;;;6.07;5.67;;;20.70;99.90;;;;;;5092437;28;20262;-51
2022/07/23 05:23:42;;;;;;;6.63;6.03;;;20.80;99.90;;;;;;5082663;28;20747;-51
2022/07/23 05:26:09;;;;;;;6.67;6.30;;;20.80;99.90;;;;;;5072805;28;20294;-51
2022/07/23 05:28:36;;;;;;;6.63;6.23;;;20.90;99.90;;;;;;5075399;28;20258;-51
2022/07/23 05:31:04;;;;;;;5.57;5.27;;;21.00;99.90;;;;;;5091819;28;20192;-50
2022/07/23 05:33:31;;;;;;;5.20;5.00;;;21.00;99.90;;;;;;5088264;28;20209;-51
2022/07/23 05:36:02;;;;;;;6.03;5.77;;;21.10;99.90;;;;;;5085706;28;20255;-51
2022/07/23 05:38:29;;;;;;;5.70;5.40;;;21.10;99.90;;;;;;5091069;28;20207;-50
2022/07/23 05:40:58;;;;;;;6.60;6.00;;;21.00;99.90;;;;;;5084860;28;20197;-51
2022/07/23 05:43:25;;;;;;;6.00;5.63;;;21.10;99.90;;;;;;5071578;28;20197;-50
2022/07/23 05:45:52;;;;;;;6.37;6.00;;;21.10;99.90;;;;;;5083567;28;20300;-51
2022/07/23 05:48:19;;;;;;;5.63;5.40;;;21.10;99.90;;;;;;5092428;28;20195;-51
2022/07/23 05:50:46;;;;;;;5.30;5.10;;;21.10;99.90;;;;;;5092035;28;20265;-51
2022/07/23 05:53:13;;;;;;;5.10;4.90;;;21.20;99.90;;;;;;5090789;28;20204;-51
2022/07/23 05:55:40;;;;;;;5.47;5.23;;;21.20;99.90;;;;;;5084803;28;20216;-51
2022/07/23 05:58:08;;;;;;;7.03;6.63;;;21.30;99.90;;;;;;5092250;28;20253;-50
2022/07/23 06:00:36;;;;;;;5.57;5.27;;;21.50;99.90;;;;;;5091843;28;20577;-50
2022/07/23 06:03:03;;;;;;;6.67;6.27;;;21.70;99.90;;;;;;5089648;28;20666;-51
2022/07/23 06:05:30;;;;;;;5.97;5.47;;;22.10;99.90;;;;;;5092145;28;20224;-50
2022/07/23 06:07:57;;;;;;;7.20;6.70;;;22.40;99.90;;;;;;5092022;28;20216;-51
2022/07/23 06:10:24;;;;;;;6.10;5.80;;;22.70;99.90;;;;;;5092180;28;20678;-51
2022/07/23 06:12:51;;;;;;;5.83;5.43;;;23.00;99.90;;;;;;5091398;28;20261;-51
2022/07/23 06:15:20;;;;;;;6.13;5.70;;;23.50;99.90;;;;;;5092023;28;20713;-51
2022/07/23 06:17:46;;;;;;;6.03;5.67;;;23.60;99.90;;;;;;5091630;28;20192;-51
2022/07/23 06:20:14;;;;;;;5.67;5.37;;;23.50;99.90;;;;;;5092221;28;20281;-51
2022/07/23 06:22:40;;;;;;;5.63;5.33;;;23.20;99.90;;;;;;5091507;28;20196;-51
2022/07/23 06:25:09;;;;;;;5.43;5.23;;;23.00;99.90;;;;;;5088731;28;20216;-51
2022/07/23 06:27:36;;;;;;;5.30;5.10;;;22.90;99.90;;;;;;5089011;28;20224;-51
2022/07/23 06:30:03;;;;;;;6.47;6.07;;;22.80;99.90;;;;;;5088183;28;20192;-51
2022/07/23 06:32:31;;;;;;;6.00;5.60;;;22.60;99.90;;;;;;5070759;28;20204;-51
2022/07/23 06:34:58;;;;;;;5.93;5.63;;;22.50;99.90;;;;;;5081907;28;20259;-51
2022/07/23 06:37:25;;;;;;;5.67;5.27;;;22.50;99.90;;;;;;5071020;28;20225;-51
2022/07/23 06:39:52;;;;;;;7.83;5.97;;;22.50;99.90;;;;;;5075249;28;20613;-51
2022/07/23 06:42:19;;;;;;;6.20;5.90;;;22.60;99.90;;;;;;5084257;28;20893;-51
2022/07/23 06:44:46;;;;;;;6.30;5.87;;;22.60;99.90;;;;;;5075364;28;20245;-51
2022/07/23 06:47:13;;;;;;;6.47;6.17;;;22.60;99.90;;;;;;5085966;28;20220;-51
2022/07/23 06:49:41;;;;;;;5.33;5.13;;;22.60;99.90;;;;;;5096449;28;20199;-51
2022/07/23 06:52:08;;;;;;;5.83;5.63;;;22.90;99.90;;;;;;5097872;28;20257;-51
2022/07/23 06:54:35;;;;;;;6.57;6.07;;;22.90;99.90;;;;;;5098511;28;20235;-51
2022/07/23 06:57:03;;;;;;;6.57;6.17;;;22.80;99.90;;;;;;5098377;28;20250;-51
2022/07/23 06:59:30;;;;;;;6.73;6.03;;;22.80;99.90;;;;;;5097968;28;20200;-51
2022/07/23 07:01:57;;;;;;;5.87;5.63;;;22.70;99.90;;;;;;5097881;28;20615;-51
2022/07/23 07:04:24;;;;;;;5.77;5.57;;;22.50;99.90;;;;;;5092886;28;20197;-51
2022/07/23 07:06:52;;;;;;;5.27;5.07;;;22.50;99.90;;;;;;5090558;28;20686;-51
2022/07/23 07:09:19;;;;;;;5.50;5.13;;;22.40;99.90;;;;;;5094622;28;20196;-51
2022/07/23 07:11:46;;;;;;;8.03;7.43;;;22.30;99.90;;;;;;5097266;28;20617;-50
2022/07/23 07:14:13;;;;;;;6.10;5.80;;;22.20;99.90;;;;;;5091501;28;20235;-51
2022/07/23 07:16:40;;;;;;;7.53;7.10;;;22.00;99.90;;;;;;5089111;28;20262;-51
2022/07/23 07:19:07;;;;;;;7.17;6.77;;;21.90;99.90;;;;;;5079250;28;20247;-51
2022/07/23 07:21:34;;;;;;;7.73;7.13;;;21.90;99.90;;;;;;5082206;28;20205;-51
2022/07/23 07:24:03;;;;;;;7.20;6.70;;;21.90;99.90;;;;;;5084255;28;20201;-51
2022/07/23 07:26:31;;;;;;;6.83;6.33;;;21.80;99.90;;;;;;5088841;28;20270;-51
2022/07/23 07:28:58;;;;;;;6.30;5.90;;;21.70;99.90;;;;;;5084863;28;20207;-51
2022/07/23 07:31:25;;;;;;;7.47;6.97;;;21.60;99.90;;;;;;5085434;28;20204;-51
2022/07/23 07:33:52;;;;;;;7.33;6.83;;;21.60;99.90;;;;;;5091742;28;20197;-51
2022/07/23 07:36:19;;;;;;;6.23;5.93;;;21.60;99.90;;;;;;5093825;22;20233;-53
2022/07/23 07:38:46;;;;;;;7.43;6.73;;;21.60;99.90;;;;;;5057134;28;20209;-53
2022/07/23 07:41:15;;;;;;;8.20;7.60;;;21.60;99.90;;;;;;5056188;28;20202;-53
2022/07/23 07:43:42;;;;;;;8.10;7.50;;;21.30;99.90;;;;;;5057229;28;20305;-53
2022/07/23 07:46:10;;;;;;;7.80;7.20;;;21.40;99.90;;;;;;5056705;28;20304;-53
2022/07/23 07:48:37;;;;;;;6.80;6.43;;;21.30;99.90;;;;;;5058594;28;20222;-53
2022/07/23 07:51:05;;;;;;;7.40;6.90;;;21.30;99.90;;;;;;5066214;28;21165;-53
2022/07/23 07:53:32;;;;;;;6.83;6.47;;;21.40;99.90;;;;;;5067456;28;20198;-53
2022/07/23 07:55:59;;;;;;;7.07;6.67;;;21.30;99.90;;;;;;5070573;28;20229;-53
2022/07/23 07:58:28;;;;;;;7.13;6.63;;;21.30;99.90;;;;;;5072966;28;20620;-52
2022/07/23 08:00:55;;;;;;;6.83;6.30;;;21.40;99.90;;;;;;5058170;28;20275;-53
2022/07/23 08:03:24;;;;;;;7.63;7.10;;;21.40;99.90;;;;;;5062812;28;20222;-53
2022/07/23 08:05:51;;;;;;;7.17;6.67;;;21.40;99.90;;;;;;5067681;28;20302;-53
2022/07/23 08:08:18;;;;;;;7.67;6.97;;;21.50;99.90;;;;;;5062507;28;20278;-53
2022/07/23 08:10:45;;;;;;;7.70;7.13;;;21.40;99.90;;;;;;5052637;28;20202;-53
2022/07/23 08:13:15;;;;;;;7.83;7.30;;;21.40;99.90;;;;;;5052726;28;20202;-53
2022/07/23 08:15:44;;;;;;;8.13;7.40;;;21.40;99.90;;;;;;5071524;28;20303;-53
2022/07/23 08:18:11;;;;;;;6.67;6.27;;;21.50;99.90;;;;;;5053425;28;20288;-53
2022/07/23 08:20:38;;;;;;;7.20;6.63;;;21.50;99.90;;;;;;5057686;28;20259;-53
2022/07/23 08:23:07;;;;;;;7.27;6.77;;;21.50;99.90;;;;;;5071450;28;20572;-53
2022/07/23 08:25:36;;;;;;;6.73;6.30;;;21.60;99.90;;;;;;5072229;28;20248;-53
2022/07/23 08:28:06;;;;;;;6.30;5.80;;;21.60;99.90;;;;;;5072156;28;20220;-53
2022/07/23 08:30:33;;;;;;;7.87;7.07;;;21.70;99.90;;;;;;5072917;28;20671;-53
2022/07/23 08:33:04;;;;;;;6.27;5.77;;;21.90;99.90;;;;;;5072348;28;20236;-53
2022/07/23 08:35:33;;;;;;;7.23;6.83;;;22.10;99.90;;;;;;5071625;28;20328;-53
2022/07/23 08:38:01;;;;;;;6.40;5.90;;;22.30;99.90;;;;;;5072686;28;20247;-53
2022/07/23 08:40:29;;;;;;;8.70;8.03;;;22.50;99.90;;;;;;5067671;28;20270;-53
2022/07/23 08:42:57;;;;;;;7.67;7.17;;;23.00;99.90;;;;;;5072180;28;20205;-53
2022/07/23 08:45:25;;;;;;;7.03;6.63;;;23.20;99.90;;;;;;5070664;28;20813;-53
2022/07/23 08:47:54;;;;;;;6.40;6.10;;;23.20;99.90;;;;;;5072315;28;20213;-53
2022/07/23 08:50:23;;;;;;;7.47;6.97;;;23.40;99.90;;;;;;5072852;28;20567;-53
2022/07/23 08:52:51;;;;;;;7.97;7.27;;;23.40;99.90;;;;;;5071979;28;20200;-53
2022/07/23 08:55:19;;;;;;;7.77;7.27;;;23.50;99.90;;;;;;5072583;28;20646;-54
2022/07/23 08:57:49;;;;;;;7.07;6.67;;;23.40;99.90;;;;;;5071275;28;20654;-53
2022/07/23 09:00:17;;;;;;;9.23;8.63;;;23.30;99.90;;;;;;5071980;28;20262;-53
2022/07/23 09:02:46;;;;;;;9.50;8.80;;;23.20;99.90;;;;;;5071924;28;20585;-53
2022/07/23 09:05:14;;;;;;;8.10;7.60;;;23.00;99.90;;;;;;5072191;28;20274;-53
2022/07/23 09:08:11;;;;;;;7.13;6.63;;;23.00;99.90;;;;;;5071439;28;20249;-53
2022/07/23 09:10:49;;;;;;;7.40;6.90;;;23.10;99.90;;;;;;5055575;28;20548;-53
2022/07/23 09:13:30;;;;;;;6.03;5.73;;;23.00;99.90;;;;;;5051379;28;20202;-53
2022/07/23 09:15:59;;;;;;;8.07;7.50;;;23.10;99.90;;;;;;5053952;28;20699;-53
2022/07/23 09:18:30;;;;;;;6.90;6.60;;;23.00;99.90;;;;;;5051537;28;20549;-53
2022/07/23 09:21:07;;;;;;;7.00;6.60;;;23.00;99.90;;;;;;5051491;28;20979;-54
2022/07/23 09:23:44;;;;;;;7.20;6.70;;;23.00;99.90;;;;;;5051405;28;20639;-54
2022/07/23 09:26:30;;;;;;;6.70;6.40;;;22.90;99.90;;;;;;5051604;28;20282;-52
2022/07/23 09:29:00;;;;;;;6.73;6.33;;;22.90;99.90;;;;;;5061248;28;20278;-53
2022/07/23 09:31:33;;;;;;;8.43;7.60;;;23.00;99.90;;;;;;5068483;28;20197;-53
2022/07/23 09:34:13;;;;;;;7.20;6.80;;;23.00;99.90;;;;;;5070422;28;20208;-52
2022/07/23 09:36:41;;;;;;;7.97;7.40;;;23.00;99.90;;;;;;5070961;28;20296;-54
2022/07/23 09:39:10;;;;;;;9.87;8.90;;;22.90;99.90;;;;;;5071315;28;20193;-54
2022/07/23 09:41:39;;;;;;;13.10;9.80;;;22.90;99.90;;;;;;5070293;28;20205;-53
2022/07/23 09:44:15;;;;;;;9.43;8.73;;;22.80;99.90;;;;;;5068138;28;20247;-53
2022/07/23 09:46:44;;;;;;;10.97;10.13;;;22.90;99.90;;;;;;5069078;28;20239;-53
2022/07/23 09:49:16;;;;;;;10.20;9.30;;;22.90;99.90;;;;;;5063114;28;20311;-54
2022/07/23 09:51:51;;;;;;;11.00;10.23;;;22.90;99.90;;;;;;5069200;28;20225;-52
2022/07/23 09:54:29;;;;;;;10.93;10.07;;;22.80;99.90;;;;;;5070249;28;20197;-53
2022/07/23 09:56:57;;;;;;;10.43;9.73;;;22.80;99.90;;;;;;5070403;28;20865;-53
2022/07/23 09:59:26;;;;;;;11.13;10.23;;;22.80;99.90;;;;;;5070197;28;20708;-52
2022/07/23 10:01:54;;;;;;;10.93;10.13;;;23.00;99.90;;;;;;5060368;28;20612;-52
2022/07/23 10:04:23;;;;;;;10.83;10.07;;;23.20;99.90;;;;;;5068581;28;20201;-53
2022/07/23 10:06:52;;;;;;;10.47;9.50;;;23.50;99.90;;;;;;5070512;28;20252;-53
2022/07/23 10:09:28;;;;;;;8.97;8.30;;;23.70;99.90;;;;;;5069632;28;20216;-53
2022/07/23 10:12:12;;;;;;;8.43;7.80;;;23.90;99.90;;;;;;5069760;28;20208;-53
2022/07/23 10:14:40;;;;;;;8.70;8.10;;;24.10;99.90;;;;;;5069580;28;20231;-53
2022/07/23 10:17:08;;;;;;;9.87;9.20;;;24.40;99.90;;;;;;5069976;28;20744;-53
2022/07/23 10:19:36;;;;;;;9.37;8.70;;;24.30;99.90;;;;;;5072188;28;20209;-53
2022/07/23 10:22:07;;;;;;;9.43;8.60;;;24.50;99.90;;;;;;5065063;28;20209;-53
2022/07/23 10:25:04;;;;;;;8.57;8.07;;;24.70;99.90;;;;;;5071033;28;20258;-53
2022/07/23 10:27:45;;;;;;;10.57;9.83;;;25.00;99.90;;;;;;5051586;28;20202;-53
2022/07/23 10:30:16;;;;;;;8.47;7.67;;;24.90;99.90;;;;;;5051710;28;20205;-53
2022/07/23 10:32:52;;;;;;;8.10;7.57;;;24.80;99.90;;;;;;5056694;28;20256;-53
2022/07/23 10:35:27;;;;;;;8.73;8.10;;;24.40;99.90;;;;;;5067330;28;20603;-53
2022/07/23 10:38:01;;;;;;;8.30;7.73;;;24.20;99.90;;;;;;5053622;28;20189;-52
2022/07/23 10:40:32;;;;;;;8.37;7.87;;;24.10;99.90;;;;;;5059661;28;20750;-53
2022/07/23 10:43:02;;;;;;;7.50;7.00;;;24.10;99.90;;;;;;5062900;28;20252;-53
2022/07/23 10:45:31;;;;;;;8.60;8.00;;;24.00;99.90;;;;;;5069647;28;20582;-53
2022/07/23 10:48:15;;;;;;;8.40;7.90;;;24.10;99.90;;;;;;5056818;28;20228;-53
2022/07/23 10:50:42;;;;;;;8.63;8.13;;;24.20;99.90;;;;;;5050565;28;20204;-53
2022/07/23 10:53:13;;;;;;;7.97;7.47;;;24.10;99.90;;;;;;5064641;28;20547;-53
2022/07/23 10:55:45;;;;;;;8.20;7.70;;;24.10;99.90;;;;;;5065850;28;20221;-53
2022/07/23 10:58:17;;;;;;;8.07;7.57;;;24.20;99.90;;;;;;5052212;28;20198;-53
2022/07/23 11:00:44;;;;;;;8.40;7.77;;;24.50;99.90;;;;;;5061235;28;20198;-53
2022/07/23 11:03:31;;;;;;;8.30;7.50;;;24.70;99.90;;;;;;5050268;28;20248;-53
2022/07/23 11:05:59;;;;;;;8.23;7.73;;;24.80;99.90;;;;;;5051057;28;20395;-53
2022/07/23 11:08:27;;;;;;;8.93;7.73;;;25.00;99.90;;;;;;5050921;28;20233;-53
2022/07/23 11:11:08;;;;;;;7.57;7.17;;;24.90;99.90;;;;;;5050920;28;20240;-53
2022/07/23 11:13:49;;;;;;;7.50;6.87;;;25.00;99.90;;;;;;5051839;28;20606;-53
2022/07/23 11:16:26;;;;;;;6.70;6.40;;;25.10;99.90;;;;;;5052083;28;20317;-53
2022/07/23 11:19:00;;;;;;;7.20;6.80;;;25.20;99.90;;;;;;5067681;28;20201;-54
2022/07/23 11:22:00;;;;;;;7.57;7.17;;;25.30;99.90;;;;;;5065080;28;20240;-53
2022/07/23 11:24:27;;;;;;;7.40;6.83;;;25.20;99.90;;;;;;5062009;28;20234;-53
2022/07/23 11:27:01;;;;;;;7.20;6.60;;;25.10;99.90;;;;;;5067730;28;20270;-53
2022/07/23 11:29:58;;;;;;;7.50;7.00;;;25.10;99.90;;;;;;5067085;28;20279;-53
2022/07/23 11:32:45;;;;;;;7.27;6.60;;;25.10;99.90;;;;;;5064392;28;20205;-53
2022/07/23 11:35:33;;;;;;;6.83;6.43;;;25.20;99.90;;;;;;5061561;28;20728;-53
2022/07/23 11:38:08;;;;;;;6.60;6.23;;;25.40;99.90;;;;;;5070454;28;20216;-53
2022/07/23 11:40:36;;;;;;;6.50;6.10;;;25.80;99.90;;;;;;5068767;28;20204;-53
2022/07/23 11:43:06;;;;;;;6.30;5.93;;;25.80;99.90;;;;;;5071777;28;20205;-53
2022/07/23 11:45:36;;;;;;;6.17;5.87;;;25.80;99.90;;;;;;5073281;28;20221;-53
2022/07/23 11:48:04;;;;;;;6.63;6.23;;;25.90;99.90;;;;;;5068673;28;20336;-52
2022/07/23 11:50:32;;;;;;;6.87;6.47;;;25.30;99.90;;;;;;5058896;28;20206;-53
2022/07/23 11:52:59;;;;;;;7.27;6.90;;;25.00;99.90;;;;;;5061475;28;20201;-53
2022/07/23 11:55:28;;;;;;;6.43;6.07;;;24.60;99.90;;;;;;5057142;28;20275;-53
2022/07/23 11:57:56;;;;;;;7.00;6.40;;;24.70;99.90;;;;;;5059286;28;20225;-53
2022/07/23 12:00:27;;;;;;;7.73;7.23;;;24.80;99.90;;;;;;5056084;28;20253;-54
2022/07/23 12:02:58;;;;;;;7.00;6.63;;;24.80;99.90;;;;;;5064114;28;20198;-53
2022/07/23 12:05:27;;;;;;;7.87;7.37;;;25.00;99.90;;;;;;5059948;28;20216;-53
2022/07/23 12:07:56;;;;;;;8.20;7.70;;;25.20;99.90;;;;;;5069399;28;20201;-54
2022/07/23 12:10:25;;;;;;;7.47;7.07;;;25.00;99.90;;;;;;5068187;28;20193;-53
2022/07/23 12:12:54;;;;;;;8.37;7.87;;;25.00;99.90;;;;;;5052427;28;20702;-53
2022/07/23 12:15:25;;;;;;;8.00;7.50;;;25.20;99.90;;;;;;5056780;28;20249;-53
2022/07/23 12:17:53;;;;;;;7.97;7.57;;;25.50;99.90;;;;;;5062516;28;20204;-53
2022/07/23 12:20:23;;;;;;;7.87;7.37;;;25.80;99.90;;;;;;5060632;28;20198;-53
2022/07/23 12:22:52;;;;;;;7.43;6.90;;;25.90;99.90;;;;;;5058880;28;20194;-53
2022/07/23 12:25:21;;;;;;;7.50;7.10;;;25.90;99.90;;;;;;5059439;28;20226;-53
2022/07/23 12:28:00;;;;;;;7.93;7.33;;;25.70;99.90;;;;;;5060128;28;20567;-53
2022/07/23 12:30:33;;;;;;;7.67;7.27;;;25.20;99.90;;;;;;5062998;28;20197;-53
2022/07/23 12:33:00;;;;;;;8.20;7.37;;;25.20;99.90;;;;;;5062273;28;20352;-53
2022/07/23 12:35:34;;;;;;;7.10;6.50;;;25.30;99.90;;;;;;5063979;28;20224;-53
2022/07/23 12:38:03;;;;;;;7.70;7.00;;;25.50;99.90;;;;;;5057303;28;20229;-53
2022/07/23 12:40:32;;;;;;;8.23;7.63;;;25.50;99.90;;;;;;5056227;28;20202;-52
2022/07/23 12:43:02;;;;;;;7.80;7.17;;;25.70;99.90;;;;;;5061081;28;20733;-53
2022/07/23 12:45:46;;;;;;;7.53;7.10;;;26.00;99.90;;;;;;5065690;28;20225;-53
2022/07/23 12:48:22;;;;;;;6.97;6.63;;;26.10;99.90;;;;;;5059370;28;20276;-54
2022/07/23 12:50:55;;;;;;;8.17;7.77;;;26.00;99.90;;;;;;5051943;28;20220;-53
2022/07/23 12:53:28;;;;;;;7.93;7.23;;;25.90;99.90;;;;;;5052980;28;20641;-53